createdAt,value
2022-12-18T00:00:37.555Z,5.5
2022-12-18T00:06:16.798Z,5.4
2022-12-18T00:17:44.757Z,5.3
2022-12-18T00:23:25.944Z,5.3
2022-12-18T00:28:47.317Z,5.2
2022-12-18T00:34:13.092Z,5.1
2022-12-18T00:39:39.140Z,5.1
2022-12-18T00:45:01.082Z,4.9
2022-12-18T00:50:40.308Z,4.9
2022-12-18T00:56:02.913Z,4.9
2022-12-18T01:01:43.344Z,4.8
2022-12-18T01:07:23.703Z,4.8
2022-12-18T01:12:30.714Z,4.7
2022-12-18T01:18:09.677Z,4.6
2022-12-18T01:23:32.790Z,4.5
2022-12-18T01:28:54.676Z,4.4
2022-12-18T01:33:45.803Z,4.4
2022-12-18T01:39:07.543Z,4.3
2022-12-18T01:44:45.096Z,4.2
2022-12-18T01:50:23.368Z,4.1
2022-12-18T01:56:01.152Z,4
2022-12-18T02:01:24.208Z,4
2022-12-18T02:06:50.447Z,4
2022-12-18T02:12:13.351Z,4
2022-12-18T02:18:00.457Z,4
2022-12-18T02:23:23.030Z,3.9
2022-12-18T02:28:30.742Z,3.9
2022-12-18T02:34:16.411Z,3.9
2022-12-18T02:39:54.124Z,3.9
2022-12-18T02:45:15.989Z,3.8
2022-12-18T02:50:58.173Z,3.8
2022-12-18T02:56:36.356Z,3.7
2022-12-18T03:01:58.769Z,3.7
2022-12-18T03:07:31.233Z,3.6
2022-12-18T03:12:54.173Z,3.6
2022-12-18T03:18:15.535Z,3.6
2022-12-18T03:23:44.905Z,3.5
2022-12-18T03:29:07.336Z,3.5
2022-12-18T03:34:45.258Z,3.6
2022-12-18T03:40:09.348Z,3.5
2022-12-18T03:45:32.668Z,3.4
2022-12-18T03:50:46.603Z,3.4
2022-12-18T03:56:26.202Z,3.4
2022-12-18T04:01:48.885Z,3.3
2022-12-18T04:06:57.028Z,3.3
2022-12-18T04:12:42.678Z,3.3
2022-12-18T04:18:32.039Z,3.3
2022-12-18T04:24:09.796Z,3.2
2022-12-18T04:29:49.812Z,3.1
2022-12-18T04:35:28.714Z,3.1
2022-12-18T04:40:19.908Z,3.1
2022-12-18T04:46:06.273Z,3.1
2022-12-18T04:51:44.595Z,3.1
2022-12-18T04:57:22.903Z,3
2022-12-18T05:02:48.462Z,2.9
2022-12-18T05:08:28.345Z,2.9
2022-12-18T05:13:53.323Z,2.9
2022-12-18T05:19:36.869Z,2.9
2022-12-18T05:25:14.992Z,2.9
2022-12-18T05:30:21.285Z,2.9
2022-12-18T05:35:46.209Z,2.9
2022-12-18T05:41:26.914Z,2.9
2022-12-18T05:46:50.346Z,2.9
2022-12-18T05:52:42.186Z,2.8
2022-12-18T05:58:21.776Z,2.9
2022-12-18T06:09:20.362Z,2.8
2022-12-18T06:14:59.166Z,2.9
2022-12-18T06:20:37.890Z,2.9
2022-12-18T06:26:17.122Z,2.9
2022-12-18T06:31:56.807Z,2.9
2022-12-18T06:37:29.393Z,2.9
2022-12-18T06:43:08.725Z,2.9
2022-12-18T06:48:18.480Z,2.9
2022-12-18T06:54:08.471Z,2.9
2022-12-18T07:00:02.003Z,2.9
2022-12-18T07:05:49.132Z,3
2022-12-18T07:11:30.613Z,3
2022-12-18T07:17:17.692Z,3.1
2022-12-18T07:22:57.633Z,3.1
2022-12-18T07:28:37.387Z,3.1
2022-12-18T07:34:01.330Z,3.2
2022-12-18T07:39:42.040Z,3.3
2022-12-18T07:45:29.147Z,3.4
2022-12-18T07:51:18.383Z,3.4
2022-12-18T07:58:11.638Z,3.6
2022-12-18T08:03:36.999Z,3.6
2022-12-18T08:09:24.433Z,3.8
2022-12-18T08:15:07.833Z,3.9
2022-12-18T08:20:36.935Z,3.9
2022-12-18T08:26:22.467Z,4
2022-12-18T08:32:36.879Z,4.1
2022-12-18T08:38:21.514Z,4.3
2022-12-18T08:44:00.758Z,4.4
2022-12-18T08:49:40.240Z,4.6
2022-12-18T08:55:21.134Z,4.8
2022-12-18T09:01:05.631Z,5.1
2022-12-18T09:06:45.885Z,5.4
2022-12-18T09:12:11.807Z,5.6
2022-12-18T09:17:56.699Z,5.9
2022-12-18T09:23:22.467Z,6.3
2022-12-18T09:28:48.699Z,6.8
2022-12-18T09:34:28.956Z,7.1
2022-12-18T09:39:56.787Z,7.4
2022-12-18T09:45:40.814Z,7.6
2022-12-18T09:51:28.158Z,8
2022-12-18T09:56:51.670Z,8.5
2022-12-18T10:02:39.100Z,8.9
2022-12-18T10:08:05.209Z,9.1
2022-12-18T10:13:44.821Z,9.3
2022-12-18T10:19:22.038Z,9.5
2022-12-18T10:25:01.314Z,9.9
2022-12-18T10:30:46.266Z,10.6
2022-12-18T10:36:28.474Z,11.1
2022-12-18T10:42:25.230Z,11.6
2022-12-18T10:48:07.790Z,11.9
2022-12-18T10:54:30.417Z,12.2
2022-12-18T11:00:18.067Z,12.1
2022-12-18T11:06:04.242Z,12.1
2022-12-18T11:11:33.380Z,12.1
2022-12-18T11:16:57.969Z,11.9
2022-12-18T11:22:44.297Z,11.8
2022-12-18T11:28:45.286Z,11.6
2022-12-18T11:34:44.923Z,11.3
2022-12-18T11:40:14.372Z,11
2022-12-18T11:45:42.892Z,10.7
2022-12-18T11:51:11.601Z,10.3
2022-12-18T11:56:57.605Z,9.9
2022-12-18T12:02:40.489Z,9.5
2022-12-18T12:08:31.611Z,9.2
2022-12-18T12:14:18.463Z,8.9
2022-12-18T12:19:57.373Z,8.7
2022-12-18T12:25:47.957Z,8.5
2022-12-18T12:31:30.196Z,8.3
2022-12-18T12:36:44.673Z,8.3
2022-12-18T12:42:16.215Z,8.1
2022-12-18T12:47:57.211Z,8
2022-12-18T12:53:28.406Z,7.8
2022-12-18T12:58:45.777Z,7.7
2022-12-18T13:04:19.187Z,7.6
2022-12-18T13:09:51.959Z,7.4
2022-12-18T13:15:27.763Z,7.3
2022-12-18T13:21:02.860Z,7.2
2022-12-18T13:26:28.957Z,7.1
2022-12-18T13:32:11.704Z,6.9
2022-12-18T13:38:31.149Z,6.8
2022-12-18T13:44:19.261Z,6.7
2022-12-18T13:50:06.074Z,6.6
2022-12-18T13:55:40.352Z,6.4
2022-12-18T14:01:26.946Z,6.3
2022-12-18T14:07:14.159Z,6.1
2022-12-18T14:13:47.035Z,5.9
2022-12-18T14:19:44.043Z,5.8
2022-12-18T14:25:26.969Z,5.6
2022-12-18T14:31:03.596Z,5.4
2022-12-18T14:36:50.195Z,5.3
2022-12-18T14:42:30.692Z,5.2
2022-12-18T14:48:40.923Z,5
2022-12-18T14:54:11.228Z,4.9
2022-12-18T14:59:56.113Z,4.7
2022-12-18T15:05:47.144Z,4.6
2022-12-18T15:11:13.253Z,4.5
2022-12-18T15:16:59.620Z,4.3
2022-12-18T15:22:25.685Z,4.3
2022-12-18T15:28:04.715Z,4.1
2022-12-18T15:33:34.956Z,4.1
2022-12-18T15:38:31.373Z,3.9
2022-12-18T15:44:19.059Z,3.9
2022-12-18T15:49:44.306Z,3.8
2022-12-18T15:55:26.286Z,3.7
2022-12-18T16:01:09.990Z,3.6
2022-12-18T16:07:30.966Z,3.6
2022-12-18T16:13:13.961Z,3.5
2022-12-18T16:18:39.801Z,3.4
2022-12-18T16:24:26.672Z,3.4
2022-12-18T16:29:57.264Z,3.3
2022-12-18T16:35:48.730Z,3.3
2022-12-18T16:41:17.248Z,3.2
2022-12-18T16:46:50.476Z,3.2
2022-12-18T16:52:18.817Z,3.1
2022-12-18T16:57:47.448Z,3.1
2022-12-18T17:03:21.920Z,3.1
2022-12-18T17:08:49.437Z,3
2022-12-18T17:14:19.364Z,2.9
2022-12-18T17:19:58.375Z,2.9
2022-12-18T17:25:09.691Z,2.9
2022-12-18T17:30:07.321Z,2.8
2022-12-18T17:35:38.094Z,2.8
2022-12-18T17:40:47.921Z,2.7
2022-12-18T17:46:01.940Z,2.6
2022-12-18T17:51:11.519Z,2.6
2022-12-18T17:56:43.339Z,2.5
2022-12-18T18:01:56.344Z,2.5
2022-12-18T18:07:26.710Z,2.4
2022-12-18T18:13:00.737Z,2.3
2022-12-18T18:18:17.855Z,2.3
2022-12-18T18:23:20.095Z,2.2
2022-12-18T18:28:17.934Z,2.1
2022-12-18T18:32:59.031Z,2
2022-12-18T18:38:48.613Z,1.9
2022-12-18T18:43:44.831Z,1.8
2022-12-18T18:49:13.563Z,1.7
2022-12-18T18:54:17.830Z,1.6
2022-12-18T19:00:53.787Z,1.5
2022-12-18T19:06:03.553Z,1.4
2022-12-18T19:11:18.248Z,1.4
2022-12-18T19:16:36.893Z,1.3
2022-12-18T19:22:14.203Z,1.3
2022-12-18T19:28:40.292Z,1.2
2022-12-18T19:34:38.557Z,1.1
2022-12-18T19:39:59.256Z,1.1
2022-12-18T19:45:20.962Z,1
2022-12-18T19:51:04.943Z,0.9
2022-12-18T19:56:55.211Z,0.9
2022-12-18T20:02:25.493Z,0.8
2022-12-18T20:08:38.558Z,0.8
2022-12-18T20:14:41.416Z,0.8
2022-12-18T20:20:25.480Z,0.6
2022-12-18T20:25:52.778Z,0.6
2022-12-18T20:31:35.190Z,0.5
2022-12-18T20:37:11.180Z,0.4
2022-12-18T20:43:07.110Z,0.4
2022-12-18T20:49:00.653Z,0.3
2022-12-18T20:54:46.111Z,0.3
2022-12-18T21:00:24.320Z,0.2
2022-12-18T21:06:06.799Z,0.2
2022-12-18T21:11:44.264Z,0.1
2022-12-18T21:17:41.743Z,0.1
2022-12-18T21:23:20.939Z,0
2022-12-18T21:29:09.908Z,0
2022-12-18T21:34:48.160Z,-0.1
2022-12-18T21:40:34.677Z,-0.1
2022-12-18T21:46:04.706Z,-0.1
2022-12-18T21:51:55.107Z,-0.2
2022-12-18T21:57:47.255Z,-0.2
2022-12-18T22:04:13.417Z,-0.3
2022-12-18T22:09:56.012Z,-0.3
2022-12-18T22:15:38.962Z,-0.3
2022-12-18T22:21:35.024Z,-0.3
2022-12-18T22:27:02.209Z,-0.4
2022-12-18T22:32:48.328Z,-0.4
2022-12-18T22:38:36.993Z,-0.4
2022-12-18T22:44:28.038Z,-0.4
2022-12-18T22:50:06.072Z,-0.4
2022-12-18T22:55:52.024Z,-0.5
2022-12-18T23:01:36.992Z,-0.5
2022-12-18T23:07:12.541Z,-0.5
2022-12-18T23:12:50.478Z,-0.5
2022-12-18T23:18:23.328Z,-0.6
2022-12-18T23:24:12.860Z,-0.6
2022-12-18T23:29:42.460Z,-0.6
2022-12-18T23:35:27.475Z,-0.6
2022-12-18T23:42:08.676Z,-0.6
2022-12-18T23:47:41.937Z,-0.6
2022-12-18T23:53:24.207Z,-0.6
2022-12-18T23:59:10.461Z,-0.6
